createdAt,value
2023-04-26T00:00:03.685Z,8.86
2023-04-26T00:02:32.537Z,8.83
2023-04-26T00:04:59.856Z,8.68
2023-04-26T00:07:26.951Z,8.39
2023-04-26T00:09:54.641Z,8.22
2023-04-26T00:12:21.843Z,8.23
2023-04-26T00:14:48.988Z,8.27
2023-04-26T00:17:17.238Z,8.34
2023-04-26T00:19:44.234Z,8.43
2023-04-26T00:22:11.394Z,8.33
2023-04-26T00:24:38.440Z,8.33
2023-04-26T00:27:27.712Z,8.26
2023-04-26T00:29:55.603Z,8.14
2023-04-26T00:32:24.914Z,8.14
2023-04-26T00:34:51.957Z,8.22
2023-04-26T00:37:18.853Z,8.27
2023-04-26T00:39:45.844Z,8.37
2023-04-26T00:42:12.871Z,8.43
2023-04-26T00:44:40.052Z,8.49
2023-04-26T00:47:07.223Z,8.54
2023-04-26T00:49:36.100Z,8.57
2023-04-26T00:52:03.082Z,8.53
2023-04-26T00:54:29.976Z,8.49
2023-04-26T00:56:58.002Z,8.49
2023-04-26T00:59:26.701Z,8.48
2023-04-26T01:01:53.717Z,8.45
2023-04-26T01:04:21.037Z,8.43
2023-04-26T01:06:49.901Z,8.42
2023-04-26T01:09:18.618Z,8.42
2023-04-26T01:11:52.043Z,8.38
2023-04-26T01:14:19.691Z,8.35
2023-04-26T01:16:47.222Z,8.34
2023-04-26T01:19:14.370Z,8.33
2023-04-26T01:21:41.670Z,8.28
2023-04-26T01:24:13.099Z,8.25
2023-04-26T01:26:40.777Z,8.23
2023-04-26T01:29:17.027Z,8.22
2023-04-26T01:31:45.117Z,8.19
2023-04-26T01:34:12.292Z,8.19
2023-04-26T01:36:39.736Z,8.15
2023-04-26T01:39:06.818Z,8.13
2023-04-26T01:41:35.282Z,8.06
2023-04-26T01:44:02.571Z,8.02
2023-04-26T01:46:31.498Z,8.00
2023-04-26T01:48:58.562Z,7.98
2023-04-26T01:51:26.036Z,7.95
2023-04-26T01:53:53.339Z,7.94
2023-04-26T01:56:24.083Z,7.83
2023-04-26T01:58:52.800Z,7.68
2023-04-26T02:02:36.584Z,7.55
2023-04-26T02:05:11.794Z,7.17
2023-04-26T02:07:58.000Z,6.85
2023-04-26T02:10:31.560Z,6.89
2023-04-26T02:12:58.434Z,6.94
2023-04-26T02:15:29.657Z,7.01
2023-04-26T02:17:56.700Z,7.13
2023-04-26T02:20:23.932Z,7.19
2023-04-26T02:22:50.954Z,7.23
2023-04-26T02:25:17.986Z,7.24
2023-04-26T02:27:57.895Z,7.26
2023-04-26T02:30:26.604Z,7.28
2023-04-26T02:32:54.375Z,7.32
2023-04-26T02:35:22.052Z,7.32
2023-04-26T02:37:49.420Z,7.32
2023-04-26T02:40:16.772Z,7.31
2023-04-26T02:42:43.736Z,7.28
2023-04-26T02:45:11.684Z,7.26
2023-04-26T02:47:40.406Z,7.25
2023-04-26T02:50:09.570Z,7.26
2023-04-26T02:52:37.818Z,7.27
2023-04-26T02:55:07.024Z,7.17
2023-04-26T02:57:34.300Z,6.95
2023-04-26T03:00:01.247Z,6.84
2023-04-26T03:02:28.829Z,6.87
2023-04-26T03:04:58.095Z,6.91
2023-04-26T03:07:27.131Z,6.92
2023-04-26T03:09:58.896Z,6.94
2023-04-26T03:12:32.130Z,6.95
2023-04-26T03:15:01.094Z,6.95
2023-04-26T03:17:29.272Z,6.95
2023-04-26T03:19:59.543Z,6.90
2023-04-26T03:22:28.524Z,6.93
2023-04-26T03:24:55.470Z,6.90
2023-04-26T03:27:22.833Z,6.80
2023-04-26T03:29:49.790Z,6.78
2023-04-26T03:32:16.818Z,6.76
2023-04-26T03:34:44.339Z,6.73
2023-04-26T03:37:12.892Z,6.68
2023-04-26T03:39:40.311Z,6.41
2023-04-26T03:42:08.149Z,6.06
2023-04-26T03:44:35.641Z,6.10
2023-04-26T03:47:02.526Z,6.18
2023-04-26T03:49:29.622Z,6.28
2023-04-26T03:51:56.505Z,6.34
2023-04-26T03:54:25.119Z,6.37
2023-04-26T03:56:52.633Z,6.41
2023-04-26T03:59:20.486Z,6.42
2023-04-26T04:01:48.157Z,6.41
2023-04-26T04:04:15.378Z,6.40
2023-04-26T04:06:43.030Z,6.39
2023-04-26T04:09:09.932Z,6.38
2023-04-26T04:11:38.317Z,6.38
2023-04-26T04:14:05.625Z,6.37
2023-04-26T04:16:33.052Z,6.32
2023-04-26T04:19:00.276Z,6.28
2023-04-26T04:21:28.015Z,6.17
2023-04-26T04:23:55.572Z,6.14
2023-04-26T04:26:22.934Z,6.12
2023-04-26T04:28:51.448Z,6.17
2023-04-26T04:31:19.044Z,6.22
2023-04-26T04:33:46.103Z,6.32
2023-04-26T04:36:13.632Z,6.42
2023-04-26T04:38:40.461Z,6.55
2023-04-26T04:41:08.424Z,6.77
2023-04-26T04:43:35.951Z,6.95
2023-04-26T04:46:04.944Z,7.17
2023-04-26T04:48:32.190Z,7.42
2023-04-26T04:50:59.916Z,7.63
2023-04-26T04:53:26.962Z,7.86
2023-04-26T04:55:54.378Z,8.01
2023-04-26T04:58:21.930Z,8.07
2023-04-26T05:00:49.036Z,7.77
2023-04-26T05:03:29.912Z,8.13
2023-04-26T05:05:58.076Z,8.33
2023-04-26T05:08:27.428Z,8.52
2023-04-26T05:10:57.547Z,9.03
2023-04-26T05:13:24.743Z,9.31
2023-04-26T05:15:51.819Z,8.87
2023-04-26T05:18:19.397Z,8.91
2023-04-26T05:20:47.854Z,9.36
2023-04-26T05:23:15.403Z,9.85
2023-04-26T05:25:42.591Z,10.28
2023-04-26T05:28:28.066Z,10.30
2023-04-26T05:31:08.815Z,10.40
2023-04-26T05:33:53.165Z,10.61
2023-04-26T05:36:30.654Z,11.01
2023-04-26T05:38:57.675Z,10.93
2023-04-26T05:41:24.728Z,10.94
2023-04-26T05:43:52.111Z,11.04
2023-04-26T05:46:20.159Z,11.31
2023-04-26T05:48:47.172Z,11.42
2023-04-26T05:51:14.042Z,11.65
2023-04-26T05:53:42.406Z,12.14
2023-04-26T05:56:09.692Z,12.98
2023-04-26T05:58:37.366Z,13.34
2023-04-26T06:01:05.069Z,13.77
2023-04-26T06:03:32.217Z,13.90
2023-04-26T06:05:59.584Z,14.14
2023-04-26T06:08:27.560Z,14.51
2023-04-26T06:10:56.402Z,15.06
2023-04-26T06:13:23.297Z,15.26
2023-04-26T06:15:50.214Z,16.00
2023-04-26T06:18:17.056Z,15.71
2023-04-26T06:20:43.906Z,15.84
2023-04-26T06:23:10.809Z,16.10
2023-04-26T06:25:38.109Z,17.08
2023-04-26T06:28:06.381Z,17.23
2023-04-26T06:30:34.156Z,17.35
2023-04-26T06:33:01.301Z,17.81
2023-04-26T06:35:30.615Z,18.46
2023-04-26T06:37:57.863Z,18.91
2023-04-26T06:40:25.992Z,18.71
2023-04-26T06:42:53.121Z,18.83
2023-04-26T06:45:47.433Z,18.65
2023-04-26T06:48:14.426Z,18.90
2023-04-26T06:50:41.548Z,19.25
2023-04-26T06:53:08.649Z,19.06
2023-04-26T06:55:40.124Z,19.15
2023-04-26T06:58:12.150Z,19.82
2023-04-26T07:00:39.612Z,19.72
2023-04-26T07:03:08.313Z,20.26
2023-04-26T07:05:44.216Z,20.55
2023-04-26T07:08:11.513Z,20.30
2023-04-26T07:10:47.987Z,20.55
2023-04-26T07:13:16.515Z,20.29
2023-04-26T07:15:43.710Z,18.53
2023-04-26T07:18:12.283Z,17.87
2023-04-26T07:20:40.547Z,19.05
2023-04-26T07:23:07.651Z,19.15
2023-04-26T07:25:34.581Z,18.78
2023-04-26T07:28:04.132Z,19.39
2023-04-26T07:30:32.667Z,19.16
2023-04-26T07:32:59.924Z,20.10
2023-04-26T07:35:28.604Z,20.23
2023-04-26T07:38:14.422Z,20.29
2023-04-26T07:41:22.643Z,20.33
2023-04-26T07:43:53.732Z,19.40
2023-04-26T07:46:21.715Z,18.57
2023-04-26T07:48:49.081Z,17.90
2023-04-26T07:51:17.475Z,19.09
2023-04-26T07:53:44.636Z,20.51
2023-04-26T07:56:11.635Z,21.61
2023-04-26T07:59:11.472Z,20.39
2023-04-26T08:01:39.532Z,19.94
2023-04-26T08:04:08.309Z,19.11
2023-04-26T08:06:37.016Z,19.42
2023-04-26T08:09:04.431Z,19.88
2023-04-26T08:11:31.738Z,19.58
2023-04-26T08:13:58.721Z,20.05
2023-04-26T08:16:25.699Z,20.09
2023-04-26T08:18:52.661Z,21.41
2023-04-26T08:21:21.555Z,22.49
2023-04-26T08:23:50.816Z,19.39
2023-04-26T08:26:17.984Z,20.28
2023-04-26T08:28:44.951Z,19.39
2023-04-26T08:31:12.882Z,19.44
2023-04-26T08:33:41.710Z,19.10
2023-04-26T08:36:09.387Z,19.02
2023-04-26T08:38:36.764Z,19.15
2023-04-26T08:41:06.666Z,19.46
2023-04-26T08:43:36.853Z,18.16
2023-04-26T08:46:12.655Z,16.80
2023-04-26T08:48:41.607Z,16.57
2023-04-26T08:51:14.088Z,17.57
2023-04-26T08:53:43.145Z,17.00
2023-04-26T08:56:13.448Z,17.73
2023-04-26T08:58:41.022Z,18.70
2023-04-26T09:01:10.490Z,19.20
2023-04-26T09:04:28.045Z,19.44
2023-04-26T09:07:01.113Z,19.56
2023-04-26T09:09:59.697Z,19.68
2023-04-26T09:12:28.321Z,19.31
2023-04-26T09:14:55.737Z,19.39
2023-04-26T09:17:28.299Z,19.40
2023-04-26T09:19:56.541Z,19.15
2023-04-26T09:22:31.987Z,18.89
2023-04-26T09:25:01.375Z,18.90
2023-04-26T09:27:39.166Z,19.51
2023-04-26T09:30:12.103Z,19.95
2023-04-26T09:32:53.723Z,20.02
2023-04-26T09:35:25.753Z,19.48
2023-04-26T09:38:20.111Z,18.94
2023-04-26T09:40:52.357Z,18.64
2023-04-26T09:43:23.055Z,18.05
2023-04-26T09:45:52.620Z,17.84
2023-04-26T09:48:21.993Z,17.67
2023-04-26T09:50:51.329Z,16.82
2023-04-26T09:53:29.284Z,16.31
2023-04-26T09:56:05.978Z,15.52
2023-04-26T09:58:36.554Z,16.15
2023-04-26T10:01:04.967Z,16.33
2023-04-26T10:03:35.943Z,15.34
2023-04-26T10:06:04.278Z,15.52
2023-04-26T10:08:35.757Z,16.37
2023-04-26T10:11:15.927Z,16.78
2023-04-26T10:13:46.146Z,17.22
2023-04-26T10:16:13.259Z,17.34
2023-04-26T10:19:04.428Z,17.36
2023-04-26T10:21:39.193Z,17.55
2023-04-26T10:24:08.335Z,17.83
2023-04-26T10:27:07.116Z,18.42
2023-04-26T10:30:10.114Z,19.22
2023-04-26T10:33:17.388Z,17.30
2023-04-26T10:36:15.074Z,15.46
2023-04-26T10:39:25.045Z,16.14
2023-04-26T10:42:22.468Z,17.12
2023-04-26T10:44:51.696Z,17.26
2023-04-26T10:47:32.066Z,17.63
2023-04-26T10:50:06.422Z,16.24
2023-04-26T10:52:35.273Z,16.59
2023-04-26T10:55:04.268Z,17.69
2023-04-26T10:57:51.735Z,18.63
2023-04-26T11:04:53.865Z,18.44
2023-04-26T11:07:39.979Z,18.25
2023-04-26T11:10:09.429Z,18.41
2023-04-26T11:12:36.927Z,18.46
2023-04-26T11:15:05.393Z,18.42
2023-04-26T11:17:37.225Z,18.13
2023-04-26T11:20:10.886Z,17.24
2023-04-26T11:22:40.361Z,17.09
2023-04-26T11:25:45.018Z,17.44
2023-04-26T11:28:13.126Z,17.60
2023-04-26T11:30:41.195Z,17.67
2023-04-26T11:33:17.554Z,17.72
2023-04-26T11:35:46.511Z,17.47
2023-04-26T11:38:44.033Z,17.41
2023-04-26T11:41:11.626Z,17.82
2023-04-26T11:43:40.158Z,18.22
2023-04-26T11:46:37.586Z,18.31
2023-04-26T11:49:08.554Z,18.39
2023-04-26T11:51:37.595Z,18.37
2023-04-26T11:54:04.938Z,18.04
2023-04-26T11:56:32.062Z,17.90
2023-04-26T11:58:59.836Z,17.79
2023-04-26T12:02:08.084Z,17.46
2023-04-26T12:04:35.408Z,16.70
2023-04-26T12:07:05.190Z,15.35
2023-04-26T12:09:33.129Z,15.40
2023-04-26T12:12:02.567Z,13.99
2023-04-26T12:14:33.242Z,13.97
2023-04-26T12:17:01.228Z,14.46
2023-04-26T12:19:28.593Z,14.39
2023-04-26T12:25:54.084Z,13.77
2023-04-26T12:28:21.784Z,13.77
2023-04-26T12:30:49.687Z,13.65
2023-04-26T12:33:17.884Z,13.54
2023-04-26T12:35:50.633Z,13.82
2023-04-26T12:38:18.773Z,13.28
2023-04-26T12:40:48.831Z,13.27
2023-04-26T12:43:15.779Z,13.35
2023-04-26T12:45:42.854Z,14.00
2023-04-26T12:48:10.241Z,14.63
2023-04-26T12:50:37.281Z,14.98
2023-04-26T12:53:05.538Z,15.30
2023-04-26T12:55:33.140Z,15.44
2023-04-26T12:58:02.206Z,15.73
2023-04-26T13:00:30.213Z,15.70
2023-04-26T13:02:57.593Z,14.51
2023-04-26T13:05:24.645Z,14.59
2023-04-26T13:07:52.276Z,14.63
2023-04-26T13:10:19.271Z,14.20
2023-04-26T13:12:46.435Z,13.86
2023-04-26T13:15:17.351Z,14.30
2023-04-26T13:17:44.791Z,14.85
2023-04-26T13:20:14.116Z,15.24
2023-04-26T13:22:42.188Z,15.40
2023-04-26T13:26:27.534Z,15.74
2023-04-26T13:28:55.715Z,16.22
2023-04-26T13:31:24.513Z,16.33
2023-04-26T13:33:51.712Z,16.42
2023-04-26T13:36:18.625Z,16.48
2023-04-26T13:38:46.192Z,16.49
2023-04-26T13:41:14.086Z,16.52
2023-04-26T13:43:40.955Z,16.34
2023-04-26T13:46:08.090Z,16.25
2023-04-26T13:48:36.470Z,16.41
2023-04-26T13:51:06.882Z,16.41
2023-04-26T13:53:34.902Z,16.53
2023-04-26T13:56:02.008Z,16.81
2023-04-26T13:58:29.009Z,16.75
2023-04-26T14:00:56.625Z,16.76
2023-04-26T14:03:25.109Z,16.70
2023-04-26T14:05:54.639Z,16.33
2023-04-26T14:08:22.984Z,16.09
2023-04-26T14:10:49.928Z,16.11
2023-04-26T14:13:17.563Z,15.97
2023-04-26T14:15:44.471Z,15.81
2023-04-26T14:18:11.557Z,15.66
2023-04-26T14:20:38.588Z,15.79
2023-04-26T14:23:06.822Z,15.77
2023-04-26T14:25:34.161Z,15.79
2023-04-26T14:28:01.392Z,15.51
2023-04-26T14:30:29.319Z,15.28
2023-04-26T14:32:56.407Z,15.33
2023-04-26T14:35:23.450Z,14.73
2023-04-26T14:37:50.521Z,14.57
2023-04-26T14:40:19.153Z,14.57
2023-04-26T14:42:46.363Z,14.43
2023-04-26T14:45:14.203Z,13.97
2023-04-26T14:47:41.659Z,14.05
2023-04-26T14:50:10.093Z,13.94
2023-04-26T14:52:37.494Z,14.26
2023-04-26T14:55:05.695Z,14.52
2023-04-26T14:57:34.048Z,14.74
2023-04-26T15:00:00.961Z,14.94
2023-04-26T15:02:27.937Z,14.99
2023-04-26T15:04:55.007Z,15.14
2023-04-26T15:07:31.212Z,14.91
2023-04-26T15:09:59.569Z,14.26
2023-04-26T15:12:26.472Z,14.09
2023-04-26T15:14:54.795Z,14.38
2023-04-26T15:17:21.822Z,14.56
2023-04-26T15:19:48.693Z,14.60
2023-04-26T15:22:18.457Z,14.66
2023-04-26T15:24:45.347Z,14.70
2023-04-26T15:27:12.298Z,14.76
2023-04-26T15:29:39.289Z,14.52
2023-04-26T15:32:09.182Z,14.65
2023-04-26T15:34:41.329Z,14.52
2023-04-26T15:37:08.578Z,14.58
2023-04-26T15:39:35.558Z,14.75
2023-04-26T15:42:02.574Z,14.76
2023-04-26T15:44:30.168Z,14.82
2023-04-26T15:46:57.418Z,14.96
2023-04-26T15:49:26.000Z,14.99
2023-04-26T15:51:53.000Z,15.05
2023-04-26T15:54:20.099Z,15.04
2023-04-26T15:56:47.179Z,14.77
2023-04-26T15:59:14.425Z,14.62
2023-04-26T16:01:41.647Z,14.44
2023-04-26T16:04:08.815Z,14.19
2023-04-26T16:06:37.233Z,14.30
2023-04-26T16:09:06.458Z,14.43
2023-04-26T16:16:22.952Z,14.46
2023-04-26T16:18:50.711Z,14.50
2023-04-26T16:21:17.693Z,14.43
2023-04-26T16:27:30.323Z,14.19
2023-04-26T16:29:57.264Z,14.19
2023-04-26T16:32:24.344Z,14.20
2023-04-26T16:34:52.150Z,14.19
2023-04-26T16:37:19.204Z,14.16
2023-04-26T16:39:46.096Z,14.15
2023-04-26T16:42:13.064Z,14.21
2023-04-26T16:44:41.523Z,14.25
2023-04-26T16:47:08.379Z,14.21
2023-04-26T16:49:35.234Z,14.09
2023-04-26T16:56:14.970Z,13.95
2023-04-26T16:58:42.172Z,13.93
2023-04-26T17:01:10.782Z,13.92
2023-04-26T17:03:38.413Z,13.92
2023-04-26T17:06:08.581Z,13.88
2023-04-26T17:08:36.368Z,13.78
2023-04-26T17:11:06.155Z,13.80
2023-04-26T17:13:35.358Z,13.79
2023-04-26T17:16:02.378Z,13.80
2023-04-26T17:18:31.695Z,13.81
2023-04-26T17:20:58.884Z,13.69
2023-04-26T17:23:25.908Z,13.60
2023-04-26T17:25:55.136Z,13.51
2023-04-26T17:28:22.859Z,13.55
2023-04-26T17:30:49.832Z,13.45
2023-04-26T17:33:36.757Z,13.43
2023-04-26T17:36:05.127Z,13.38
2023-04-26T17:38:32.840Z,13.34
2023-04-26T17:41:00.245Z,13.36
2023-04-26T17:43:28.217Z,13.31
2023-04-26T17:45:56.237Z,13.25
2023-04-26T17:48:24.089Z,13.23
2023-04-26T17:50:52.845Z,13.15
2023-04-26T17:53:20.104Z,13.05
2023-04-26T17:55:47.572Z,13.04
2023-04-26T17:58:14.435Z,13.05
2023-04-26T18:00:42.485Z,13.04
2023-04-26T18:03:17.313Z,13.03
2023-04-26T18:05:45.231Z,13.01
2023-04-26T18:08:14.297Z,13.00
2023-04-26T18:10:47.157Z,12.96
2023-04-26T18:13:15.621Z,12.91
2023-04-26T18:15:42.546Z,12.85
2023-04-26T18:18:10.480Z,12.78
2023-04-26T18:20:38.106Z,12.70
2023-04-26T18:23:05.168Z,12.61
2023-04-26T18:25:33.683Z,12.58
2023-04-26T18:28:00.565Z,12.52
2023-04-26T18:30:27.710Z,12.46
2023-04-26T18:32:54.851Z,12.34
2023-04-26T18:35:21.749Z,12.29
2023-04-26T18:37:48.771Z,12.30
2023-04-26T18:40:15.914Z,12.31
2023-04-26T18:42:44.767Z,12.32
2023-04-26T18:45:13.155Z,12.30
2023-04-26T18:47:40.281Z,12.26
2023-04-26T18:50:08.733Z,12.26
2023-04-26T18:52:35.657Z,12.25
2023-04-26T18:55:02.677Z,12.22
2023-04-26T18:57:32.551Z,12.18
2023-04-26T19:00:01.398Z,12.14
2023-04-26T19:02:28.602Z,12.03
2023-04-26T19:04:55.997Z,11.93
2023-04-26T19:07:23.624Z,11.82
2023-04-26T19:09:54.337Z,11.69
2023-04-26T19:12:22.362Z,11.63
2023-04-26T19:14:49.223Z,11.67
2023-04-26T19:17:17.683Z,11.73
2023-04-26T19:19:44.588Z,11.72
2023-04-26T19:22:12.672Z,11.73
2023-04-26T19:24:39.635Z,11.70
2023-04-26T19:27:06.563Z,11.69
2023-04-26T19:29:33.439Z,11.67
2023-04-26T19:32:00.518Z,11.68
2023-04-26T19:34:28.752Z,11.60
2023-04-26T19:36:55.561Z,11.52
2023-04-26T19:39:23.855Z,11.51
2023-04-26T19:41:50.916Z,11.47
2023-04-26T19:44:18.107Z,11.40
2023-04-26T19:46:45.186Z,11.34
2023-04-26T19:49:12.549Z,11.10
2023-04-26T19:51:40.925Z,10.68
2023-04-26T19:54:08.361Z,10.36
2023-04-26T19:56:35.242Z,10.24
2023-04-26T19:59:02.201Z,10.22
2023-04-26T20:01:29.226Z,10.16
2023-04-26T20:03:56.680Z,10.10
2023-04-26T20:06:23.686Z,10.10
2023-04-26T20:08:53.018Z,10.13
2023-04-26T20:11:20.162Z,10.12
2023-04-26T20:13:47.107Z,10.05
2023-04-26T20:16:14.621Z,10.04
2023-04-26T20:18:41.658Z,10.08
2023-04-26T20:21:09.074Z,10.15
2023-04-26T20:23:36.125Z,10.22
2023-04-26T20:26:04.313Z,10.19
2023-04-26T20:28:31.239Z,10.19
2023-04-26T20:30:58.050Z,10.08
2023-04-26T20:33:24.992Z,9.78
2023-04-26T20:35:52.090Z,9.64
2023-04-26T20:38:19.541Z,9.60
2023-04-26T20:40:47.169Z,9.53
2023-04-26T20:43:15.420Z,9.60
2023-04-26T20:45:42.388Z,9.67
2023-04-26T20:48:09.900Z,9.74
2023-04-26T20:50:37.359Z,9.87
2023-04-26T20:53:04.567Z,9.97
2023-04-26T20:55:31.425Z,10.01
2023-04-26T20:57:58.389Z,9.93
2023-04-26T21:00:27.839Z,9.92
2023-04-26T21:02:54.848Z,9.96
2023-04-26T21:05:22.294Z,10.00
2023-04-26T21:07:49.308Z,9.97
2023-04-26T21:10:16.417Z,10.01
2023-04-26T21:12:43.544Z,9.98
2023-04-26T21:15:11.652Z,9.95
2023-04-26T21:17:40.262Z,9.87
2023-04-26T21:20:08.272Z,9.81
2023-04-26T21:22:35.337Z,9.81
2023-04-26T21:25:02.609Z,9.80
2023-04-26T21:27:29.693Z,9.82
2023-04-26T21:29:57.203Z,9.89
2023-04-26T21:32:24.214Z,9.74
2023-04-26T21:34:52.528Z,9.72
2023-04-26T21:37:19.770Z,9.71
2023-04-26T21:39:46.698Z,9.71
2023-04-26T21:42:13.672Z,9.68
2023-04-26T21:44:40.830Z,9.70
2023-04-26T21:51:45.027Z,9.78
2023-04-26T21:54:12.809Z,9.80
2023-04-26T21:56:39.815Z,9.79
2023-04-26T21:59:06.796Z,9.79
2023-04-26T22:01:34.008Z,9.82
2023-04-26T22:04:01.044Z,9.91
2023-04-26T22:06:28.082Z,9.87
2023-04-26T22:08:57.104Z,9.67
2023-04-26T22:11:24.222Z,9.43
2023-04-26T22:13:51.703Z,9.24
2023-04-26T22:16:18.828Z,9.09
2023-04-26T22:18:45.863Z,9.09
2023-04-26T22:21:12.759Z,9.12
2023-04-26T22:23:39.611Z,9.19
2023-04-26T22:26:07.933Z,9.30
2023-04-26T22:28:34.893Z,9.41
2023-04-26T22:31:02.007Z,9.30
2023-04-26T22:33:28.904Z,9.24
2023-04-26T22:35:56.085Z,9.23
2023-04-26T22:38:23.147Z,9.22
2023-04-26T22:40:50.355Z,9.19
2023-04-26T22:43:18.845Z,9.16
2023-04-26T22:45:46.515Z,9.17
2023-04-26T22:48:13.492Z,9.14
2023-04-26T22:50:40.435Z,9.14
2023-04-26T22:53:07.324Z,9.14
2023-04-26T22:55:34.293Z,9.20
2023-04-26T22:58:01.171Z,9.27
2023-04-26T23:00:29.507Z,9.33
2023-04-26T23:02:56.531Z,9.35
2023-04-26T23:05:23.528Z,9.41
2023-04-26T23:07:50.450Z,9.41
2023-04-26T23:10:17.396Z,9.40
2023-04-26T23:12:45.098Z,9.36
2023-04-26T23:15:12.551Z,9.33
2023-04-26T23:17:41.425Z,9.28
2023-04-26T23:20:09.794Z,9.25
2023-04-26T23:22:36.732Z,9.23
2023-04-26T23:25:03.841Z,9.22
2023-04-26T23:27:30.783Z,9.17
2023-04-26T23:29:57.867Z,9.20
2023-04-26T23:32:25.017Z,9.18
2023-04-26T23:34:53.257Z,9.16
2023-04-26T23:37:20.184Z,9.05
2023-04-26T23:39:46.961Z,8.93
2023-04-26T23:42:13.818Z,8.95
2023-04-26T23:44:40.719Z,8.93
2023-04-26T23:47:07.564Z,8.91
2023-04-26T23:49:34.557Z,8.91
2023-04-26T23:52:02.870Z,8.90
2023-04-26T23:54:29.809Z,8.88
2023-04-26T23:56:56.729Z,8.85
2023-04-26T23:59:23.724Z,8.83
